sensor_id;sensor_type;location;lat;lon;timestamp;temperature;humidity
56162;DHT22;42045;52.986;6.014;2022-11-15T00:00:33;6.40;99.90
56162;DHT22;42045;52.986;6.014;2022-11-15T00:02:58;6.40;99.90
56162;DHT22;42045;52.986;6.014;2022-11-15T00:05:24;6.50;99.90
56162;DHT22;42045;52.986;6.014;2022-11-15T00:07:50;6.50;99.90
56162;DHT22;42045;52.986;6.014;2022-11-15T00:10:15;6.60;99.90
56162;DHT22;42045;52.986;6.014;2022-11-15T00:12:41;6.70;99.90
56162;DHT22;42045;52.986;6.014;2022-11-15T00:15:07;6.70;99.90
56162;DHT22;42045;52.986;6.014;2022-11-15T00:17:33;6.80;99.90
56162;DHT22;42045;52.986;6.014;2022-11-15T00:19:58;6.80;99.90
56162;DHT22;42045;52.986;6.014;2022-11-15T00:22:24;6.80;99.90
56162;DHT22;42045;52.986;6.014;2022-11-15T00:24:50;6.90;99.90
56162;DHT22;42045;52.986;6.014;2022-11-15T00:27:15;6.90;99.90
56162;DHT22;42045;52.986;6.014;2022-11-15T00:29:41;6.90;99.90
56162;DHT22;42045;52.986;6.014;2022-11-15T00:32:10;6.80;99.90
56162;DHT22;42045;52.986;6.014;2022-11-15T00:34:36;6.90;99.90
56162;DHT22;42045;52.986;6.014;2022-11-15T00:37:01;6.90;99.90
56162;DHT22;42045;52.986;6.014;2022-11-15T00:39:27;6.90;99.90
56162;DHT22;42045;52.986;6.014;2022-11-15T00:41:53;6.90;99.90
56162;DHT22;42045;52.986;6.014;2022-11-15T00:44:19;6.90;99.90
56162;DHT22;42045;52.986;6.014;2022-11-15T00:46:44;6.90;99.90
56162;DHT22;42045;52.986;6.014;2022-11-15T00:49:10;6.90;99.90
56162;DHT22;42045;52.986;6.014;2022-11-15T00:51:35;6.90;99.90
56162;DHT22;42045;52.986;6.014;2022-11-15T00:54:01;6.90;99.90
56162;DHT22;42045;52.986;6.014;2022-11-15T00:56:27;6.90;99.90
56162;DHT22;42045;52.986;6.014;2022-11-15T00:58:53;6.80;99.90
56162;DHT22;42045;52.986;6.014;2022-11-15T01:01:18;6.80;99.90
56162;DHT22;42045;52.986;6.014;2022-11-15T01:03:44;6.80;99.90
56162;DHT22;42045;52.986;6.014;2022-11-15T01:06:10;6.80;99.90
56162;DHT22;42045;52.986;6.014;2022-11-15T01:08:38;6.80;99.90
56162;DHT22;42045;52.986;6.014;2022-11-15T01:11:09;6.80;99.90
56162;DHT22;42045;52.986;6.014;2022-11-15T01:13:37;6.70;99.90
56162;DHT22;42045;52.986;6.014;2022-11-15T01:16:15;6.70;99.90
56162;DHT22;42045;52.986;6.014;2022-11-15T01:18:42;6.70;99.90
56162;DHT22;42045;52.986;6.014;2022-11-15T01:21:11;6.70;99.90
56162;DHT22;42045;52.986;6.014;2022-11-15T01:23:37;6.70;99.90
56162;DHT22;42045;52.986;6.014;2022-11-15T01:26:05;6.70;99.90
56162;DHT22;42045;52.986;6.014;2022-11-15T01:28:32;6.50;99.90
56162;DHT22;42045;52.986;6.014;2022-11-15T01:31:02;6.50;99.90
56162;DHT22;42045;52.986;6.014;2022-11-15T01:33:29;6.50;99.90
56162;DHT22;42045;52.986;6.014;2022-11-15T01:35:55;6.40;99.90
56162;DHT22;42045;52.986;6.014;2022-11-15T01:38:21;6.40;99.90
56162;DHT22;42045;52.986;6.014;2022-11-15T01:40:47;6.40;99.90
56162;DHT22;42045;52.986;6.014;2022-11-15T01:45:58;6.40;99.90
56162;DHT22;42045;52.986;6.014;2022-11-15T01:48:30;6.40;99.90
56162;DHT22;42045;52.986;6.014;2022-11-15T01:50:58;6.30;99.90
56162;DHT22;42045;52.986;6.014;2022-11-15T01:53:25;6.30;99.90
56162;DHT22;42045;52.986;6.014;2022-11-15T01:55:52;6.40;99.90
56162;DHT22;42045;52.986;6.014;2022-11-15T01:58:19;6.30;99.90
56162;DHT22;42045;52.986;6.014;2022-11-15T02:00:45;6.30;99.90
56162;DHT22;42045;52.986;6.014;2022-11-15T02:03:10;6.40;99.90
56162;DHT22;42045;52.986;6.014;2022-11-15T02:05:36;6.40;99.90
56162;DHT22;42045;52.986;6.014;2022-11-15T02:08:02;6.40;99.90
56162;DHT22;42045;52.986;6.014;2022-11-15T02:10:28;6.40;99.90
56162;DHT22;42045;52.986;6.014;2022-11-15T02:12:56;6.40;99.90
56162;DHT22;42045;52.986;6.014;2022-11-15T02:15:24;6.40;99.90
56162;DHT22;42045;52.986;6.014;2022-11-15T02:18:16;6.40;99.90
56162;DHT22;42045;52.986;6.014;2022-11-15T02:21:07;6.40;99.90
56162;DHT22;42045;52.986;6.014;2022-11-15T02:24:00;6.40;99.90
56162;DHT22;42045;52.986;6.014;2022-11-15T02:27:05;6.40;99.90
56162;DHT22;42045;52.986;6.014;2022-11-15T02:36:01;6.50;99.90
56162;DHT22;42045;52.986;6.014;2022-11-15T02:38:47;6.50;99.90
56162;DHT22;42045;52.986;6.014;2022-11-15T02:41:24;6.50;99.90
56162;DHT22;42045;52.986;6.014;2022-11-15T02:44:07;6.50;99.90
56162;DHT22;42045;52.986;6.014;2022-11-15T02:46:57;6.60;99.90
56162;DHT22;42045;52.986;6.014;2022-11-15T02:49:49;6.60;99.90
56162;DHT22;42045;52.986;6.014;2022-11-15T02:52:25;6.60;99.90
56162;DHT22;42045;52.986;6.014;2022-11-15T02:54:56;6.70;99.90
56162;DHT22;42045;52.986;6.014;2022-11-15T03:00:20;6.70;99.90
56162;DHT22;42045;52.986;6.014;2022-11-15T03:08:43;6.80;99.90
56162;DHT22;42045;52.986;6.014;2022-11-15T03:11:15;6.80;99.90
56162;DHT22;42045;52.986;6.014;2022-11-15T03:21:44;6.90;99.90
56162;DHT22;42045;52.986;6.014;2022-11-15T03:24:12;6.90;99.90
56162;DHT22;42045;52.986;6.014;2022-11-15T03:26:40;6.90;99.90
56162;DHT22;42045;52.986;6.014;2022-11-15T03:29:16;6.90;99.90
56162;DHT22;42045;52.986;6.014;2022-11-15T03:31:46;7.00;99.90
56162;DHT22;42045;52.986;6.014;2022-11-15T03:34:44;7.00;99.90
56162;DHT22;42045;52.986;6.014;2022-11-15T03:37:13;7.10;99.90
56162;DHT22;42045;52.986;6.014;2022-11-15T03:39:40;7.10;99.90
56162;DHT22;42045;52.986;6.014;2022-11-15T03:42:29;7.10;99.90
56162;DHT22;42045;52.986;6.014;2022-11-15T03:45:06;7.10;99.90
56162;DHT22;42045;52.986;6.014;2022-11-15T03:47:43;7.20;99.90
56162;DHT22;42045;52.986;6.014;2022-11-15T03:50:17;7.20;99.90
56162;DHT22;42045;52.986;6.014;2022-11-15T03:52:45;7.30;99.90
56162;DHT22;42045;52.986;6.014;2022-11-15T03:55:15;7.20;99.90
56162;DHT22;42045;52.986;6.014;2022-11-15T03:57:42;7.30;99.90
56162;DHT22;42045;52.986;6.014;2022-11-15T04:00:08;7.30;99.90
56162;DHT22;42045;52.986;6.014;2022-11-15T04:02:34;7.30;99.90
56162;DHT22;42045;52.986;6.014;2022-11-15T04:04:59;7.30;99.90
56162;DHT22;42045;52.986;6.014;2022-11-15T04:07:25;7.30;99.90
56162;DHT22;42045;52.986;6.014;2022-11-15T04:09:51;7.40;99.90
56162;DHT22;42045;52.986;6.014;2022-11-15T04:12:32;7.40;99.90
56162;DHT22;42045;52.986;6.014;2022-11-15T04:15:07;7.50;99.90
56162;DHT22;42045;52.986;6.014;2022-11-15T04:17:41;7.40;99.90
56162;DHT22;42045;52.986;6.014;2022-11-15T04:20:11;7.40;99.90
56162;DHT22;42045;52.986;6.014;2022-11-15T04:22:57;7.50;99.90
56162;DHT22;42045;52.986;6.014;2022-11-15T04:25:43;7.50;99.90
56162;DHT22;42045;52.986;6.014;2022-11-15T04:28:10;7.60;99.90
56162;DHT22;42045;52.986;6.014;2022-11-15T04:30:35;7.50;99.90
56162;DHT22;42045;52.986;6.014;2022-11-15T04:33:01;7.50;99.90
56162;DHT22;42045;52.986;6.014;2022-11-15T04:35:27;7.70;99.90
56162;DHT22;42045;52.986;6.014;2022-11-15T04:37:54;7.60;99.90
56162;DHT22;42045;52.986;6.014;2022-11-15T04:40:20;7.80;99.90
56162;DHT22;42045;52.986;6.014;2022-11-15T04:42:45;7.80;99.90
56162;DHT22;42045;52.986;6.014;2022-11-15T04:45:11;7.80;99.90
56162;DHT22;42045;52.986;6.014;2022-11-15T04:47:37;7.80;99.90
56162;DHT22;42045;52.986;6.014;2022-11-15T04:50:03;7.80;99.90
56162;DHT22;42045;52.986;6.014;2022-11-15T04:52:29;7.90;99.90
56162;DHT22;42045;52.986;6.014;2022-11-15T04:54:54;7.90;99.90
56162;DHT22;42045;52.986;6.014;2022-11-15T04:57:20;8.00;99.90
56162;DHT22;42045;52.986;6.014;2022-11-15T04:59:46;8.00;99.90
56162;DHT22;42045;52.986;6.014;2022-11-15T05:02:11;8.10;99.90
56162;DHT22;42045;52.986;6.014;2022-11-15T05:04:37;8.00;99.90
56162;DHT22;42045;52.986;6.014;2022-11-15T05:07:03;8.10;99.90
56162;DHT22;42045;52.986;6.014;2022-11-15T05:09:31;8.10;99.90
56162;DHT22;42045;52.986;6.014;2022-11-15T05:11:57;8.10;99.90
56162;DHT22;42045;52.986;6.014;2022-11-15T05:14:23;8.20;99.90
56162;DHT22;42045;52.986;6.014;2022-11-15T05:16:48;8.20;99.90
56162;DHT22;42045;52.986;6.014;2022-11-15T05:19:14;8.30;99.90
56162;DHT22;42045;52.986;6.014;2022-11-15T05:21:40;8.30;99.90
56162;DHT22;42045;52.986;6.014;2022-11-15T05:24:06;8.40;99.90
56162;DHT22;42045;52.986;6.014;2022-11-15T05:26:32;8.40;99.90
56162;DHT22;42045;52.986;6.014;2022-11-15T05:28:59;8.50;99.90
56162;DHT22;42045;52.986;6.014;2022-11-15T05:31:25;8.50;99.90
56162;DHT22;42045;52.986;6.014;2022-11-15T05:33:52;8.60;99.90
56162;DHT22;42045;52.986;6.014;2022-11-15T05:36:33;8.60;99.90
56162;DHT22;42045;52.986;6.014;2022-11-15T05:38:59;8.60;99.90
56162;DHT22;42045;52.986;6.014;2022-11-15T05:41:47;8.60;99.90
56162;DHT22;42045;52.986;6.014;2022-11-15T05:44:16;8.60;99.90
56162;DHT22;42045;52.986;6.014;2022-11-15T05:46:43;8.60;99.90
56162;DHT22;42045;52.986;6.014;2022-11-15T05:49:12;8.60;99.90
56162;DHT22;42045;52.986;6.014;2022-11-15T05:51:39;8.80;99.90
56162;DHT22;42045;52.986;6.014;2022-11-15T05:54:07;8.70;99.90
56162;DHT22;42045;52.986;6.014;2022-11-15T05:56:33;8.80;99.90
56162;DHT22;42045;52.986;6.014;2022-11-15T05:58:58;8.80;99.90
56162;DHT22;42045;52.986;6.014;2022-11-15T06:01:25;8.80;99.90
56162;DHT22;42045;52.986;6.014;2022-11-15T06:03:51;8.80;99.90
56162;DHT22;42045;52.986;6.014;2022-11-15T06:06:16;8.80;99.90
56162;DHT22;42045;52.986;6.014;2022-11-15T06:08:42;8.90;99.90
56162;DHT22;42045;52.986;6.014;2022-11-15T06:11:08;8.90;99.90
56162;DHT22;42045;52.986;6.014;2022-11-15T06:13:34;8.90;99.90
56162;DHT22;42045;52.986;6.014;2022-11-15T06:16:00;8.90;99.90
56162;DHT22;42045;52.986;6.014;2022-11-15T06:18:25;8.90;99.90
56162;DHT22;42045;52.986;6.014;2022-11-15T06:20:51;9.00;99.90
56162;DHT22;42045;52.986;6.014;2022-11-15T06:23:17;9.00;99.90
56162;DHT22;42045;52.986;6.014;2022-11-15T06:25:43;9.00;99.90
56162;DHT22;42045;52.986;6.014;2022-11-15T06:28:09;9.00;99.90
56162;DHT22;42045;52.986;6.014;2022-11-15T06:30:34;9.00;99.90
56162;DHT22;42045;52.986;6.014;2022-11-15T06:33:01;9.10;99.90
56162;DHT22;42045;52.986;6.014;2022-11-15T06:35:28;9.20;99.90
56162;DHT22;42045;52.986;6.014;2022-11-15T06:37:54;9.10;99.90
56162;DHT22;42045;52.986;6.014;2022-11-15T06:40:20;9.10;99.90
56162;DHT22;42045;52.986;6.014;2022-11-15T06:42:46;9.20;99.90
56162;DHT22;42045;52.986;6.014;2022-11-15T06:45:11;9.20;99.90
56162;DHT22;42045;52.986;6.014;2022-11-15T06:47:47;9.20;99.90
56162;DHT22;42045;52.986;6.014;2022-11-15T06:50:13;9.30;99.90
56162;DHT22;42045;52.986;6.014;2022-11-15T06:52:38;9.30;99.90
56162;DHT22;42045;52.986;6.014;2022-11-15T06:55:04;9.40;99.90
56162;DHT22;42045;52.986;6.014;2022-11-15T06:57:30;9.30;99.90
56162;DHT22;42045;52.986;6.014;2022-11-15T06:59:56;9.50;99.90
56162;DHT22;42045;52.986;6.014;2022-11-15T07:02:21;9.50;99.90
56162;DHT22;42045;52.986;6.014;2022-11-15T07:04:47;9.40;99.90
56162;DHT22;42045;52.986;6.014;2022-11-15T07:07:13;9.40;99.90
56162;DHT22;42045;52.986;6.014;2022-11-15T07:09:38;9.40;99.90
56162;DHT22;42045;52.986;6.014;2022-11-15T07:12:04;9.50;99.90
56162;DHT22;42045;52.986;6.014;2022-11-15T07:14:30;9.60;99.90
56162;DHT22;42045;52.986;6.014;2022-11-15T07:16:55;9.60;99.90
56162;DHT22;42045;52.986;6.014;2022-11-15T07:19:21;9.60;99.90
56162;DHT22;42045;52.986;6.014;2022-11-15T07:21:47;9.50;99.90
56162;DHT22;42045;52.986;6.014;2022-11-15T07:24:12;9.50;99.90
56162;DHT22;42045;52.986;6.014;2022-11-15T07:26:38;9.70;99.90
56162;DHT22;42045;52.986;6.014;2022-11-15T07:29:04;9.50;99.90
56162;DHT22;42045;52.986;6.014;2022-11-15T07:31:29;9.50;99.90
56162;DHT22;42045;52.986;6.014;2022-11-15T07:33:55;9.50;99.90
56162;DHT22;42045;52.986;6.014;2022-11-15T07:36:20;9.60;99.90
56162;DHT22;42045;52.986;6.014;2022-11-15T07:38:46;9.50;99.90
56162;DHT22;42045;52.986;6.014;2022-11-15T07:41:12;9.60;99.90
56162;DHT22;42045;52.986;6.014;2022-11-15T07:43:37;9.50;99.90
56162;DHT22;42045;52.986;6.014;2022-11-15T07:46:07;9.70;99.90
56162;DHT22;42045;52.986;6.014;2022-11-15T07:48:35;9.70;99.90
56162;DHT22;42045;52.986;6.014;2022-11-15T07:51:01;9.50;99.90
56162;DHT22;42045;52.986;6.014;2022-11-15T07:53:27;9.60;99.90
56162;DHT22;42045;52.986;6.014;2022-11-15T07:55:53;9.60;99.90
56162;DHT22;42045;52.986;6.014;2022-11-15T07:58:19;9.60;99.90
56162;DHT22;42045;52.986;6.014;2022-11-15T08:00:45;9.60;99.90
56162;DHT22;42045;52.986;6.014;2022-11-15T08:03:12;9.60;99.90
56162;DHT22;42045;52.986;6.014;2022-11-15T08:05:39;9.80;99.90
56162;DHT22;42045;52.986;6.014;2022-11-15T08:08:06;9.80;99.90
56162;DHT22;42045;52.986;6.014;2022-11-15T08:10:32;9.80;99.90
56162;DHT22;42045;52.986;6.014;2022-11-15T08:12:59;9.90;99.90
56162;DHT22;42045;52.986;6.014;2022-11-15T08:15:25;9.80;99.90
56162;DHT22;42045;52.986;6.014;2022-11-15T08:17:57;10.00;99.90
56162;DHT22;42045;52.986;6.014;2022-11-15T08:20:23;9.90;99.90
56162;DHT22;42045;52.986;6.014;2022-11-15T08:22:49;10.10;99.90
56162;DHT22;42045;52.986;6.014;2022-11-15T08:25:15;10.00;99.90
56162;DHT22;42045;52.986;6.014;2022-11-15T08:27:41;10.10;99.90
56162;DHT22;42045;52.986;6.014;2022-11-15T08:30:07;10.00;99.90
56162;DHT22;42045;52.986;6.014;2022-11-15T08:32:32;10.10;99.90
56162;DHT22;42045;52.986;6.014;2022-11-15T08:34:58;10.00;99.90
56162;DHT22;42045;52.986;6.014;2022-11-15T08:37:24;10.10;99.90
56162;DHT22;42045;52.986;6.014;2022-11-15T08:39:49;10.00;99.90
56162;DHT22;42045;52.986;6.014;2022-11-15T08:42:15;10.10;99.90
56162;DHT22;42045;52.986;6.014;2022-11-15T08:44:42;10.10;99.90
56162;DHT22;42045;52.986;6.014;2022-11-15T08:47:10;10.30;99.90
56162;DHT22;42045;52.986;6.014;2022-11-15T08:49:36;10.20;99.90
56162;DHT22;42045;52.986;6.014;2022-11-15T08:52:02;10.30;99.90
56162;DHT22;42045;52.986;6.014;2022-11-15T08:54:27;10.20;99.90
56162;DHT22;42045;52.986;6.014;2022-11-15T08:56:53;10.20;99.90
56162;DHT22;42045;52.986;6.014;2022-11-15T08:59:19;10.40;99.90
56162;DHT22;42045;52.986;6.014;2022-11-15T09:01:44;10.40;99.90
56162;DHT22;42045;52.986;6.014;2022-11-15T09:04:10;10.40;99.90
56162;DHT22;42045;52.986;6.014;2022-11-15T09:06:36;10.50;99.90
56162;DHT22;42045;52.986;6.014;2022-11-15T09:09:02;10.50;99.90
56162;DHT22;42045;52.986;6.014;2022-11-15T09:11:28;10.50;99.90
56162;DHT22;42045;52.986;6.014;2022-11-15T09:13:53;10.40;99.90
56162;DHT22;42045;52.986;6.014;2022-11-15T09:16:19;10.60;99.90
56162;DHT22;42045;52.986;6.014;2022-11-15T09:18:45;10.70;99.90
56162;DHT22;42045;52.986;6.014;2022-11-15T09:21:11;10.60;99.90
56162;DHT22;42045;52.986;6.014;2022-11-15T09:23:37;10.60;99.90
56162;DHT22;42045;52.986;6.014;2022-11-15T09:26:04;10.70;99.90
56162;DHT22;42045;52.986;6.014;2022-11-15T09:28:30;10.70;99.90
56162;DHT22;42045;52.986;6.014;2022-11-15T09:30:58;10.70;99.90
56162;DHT22;42045;52.986;6.014;2022-11-15T09:33:24;10.70;99.90
56162;DHT22;42045;52.986;6.014;2022-11-15T09:35:50;10.70;99.90
56162;DHT22;42045;52.986;6.014;2022-11-15T09:38:16;10.80;99.90
56162;DHT22;42045;52.986;6.014;2022-11-15T09:40:42;10.80;99.90
56162;DHT22;42045;52.986;6.014;2022-11-15T09:46:19;10.90;99.90
56162;DHT22;42045;52.986;6.014;2022-11-15T09:48:56;11.10;99.90
56162;DHT22;42045;52.986;6.014;2022-11-15T09:54:10;11.10;99.90
56162;DHT22;42045;52.986;6.014;2022-11-15T09:56:40;11.10;99.90
56162;DHT22;42045;52.986;6.014;2022-11-15T09:59:26;11.20;99.90
56162;DHT22;42045;52.986;6.014;2022-11-15T10:02:13;11.20;99.90
56162;DHT22;42045;52.986;6.014;2022-11-15T10:04:41;11.10;99.90
56162;DHT22;42045;52.986;6.014;2022-11-15T10:07:14;11.20;99.90
56162;DHT22;42045;52.986;6.014;2022-11-15T10:09:51;11.10;99.90
56162;DHT22;42045;52.986;6.014;2022-11-15T10:12:18;11.20;99.90
56162;DHT22;42045;52.986;6.014;2022-11-15T10:14:45;11.20;99.90
56162;DHT22;42045;52.986;6.014;2022-11-15T10:17:40;11.20;99.90
56162;DHT22;42045;52.986;6.014;2022-11-15T10:22:51;11.20;99.90
56162;DHT22;42045;52.986;6.014;2022-11-15T10:25:19;11.20;99.90
56162;DHT22;42045;52.986;6.014;2022-11-15T10:27:53;11.20;99.90
56162;DHT22;42045;52.986;6.014;2022-11-15T10:30:19;11.20;99.90
56162;DHT22;42045;52.986;6.014;2022-11-15T10:32:46;11.30;99.90
56162;DHT22;42045;52.986;6.014;2022-11-15T10:35:28;11.40;99.90
56162;DHT22;42045;52.986;6.014;2022-11-15T10:38:09;11.40;99.90
56162;DHT22;42045;52.986;6.014;2022-11-15T10:40:36;11.40;99.90
56162;DHT22;42045;52.986;6.014;2022-11-15T10:45:35;11.50;99.90
56162;DHT22;42045;52.986;6.014;2022-11-15T10:50:44;11.50;99.90
56162;DHT22;42045;52.986;6.014;2022-11-15T10:55:48;11.60;99.90
56162;DHT22;42045;52.986;6.014;2022-11-15T10:58:41;11.60;99.90
56162;DHT22;42045;52.986;6.014;2022-11-15T11:01:17;11.60;99.90
56162;DHT22;42045;52.986;6.014;2022-11-15T11:04:07;11.60;99.90
56162;DHT22;42045;52.986;6.014;2022-11-15T11:06:46;11.50;99.90
56162;DHT22;42045;52.986;6.014;2022-11-15T11:11:51;11.60;99.90
56162;DHT22;42045;52.986;6.014;2022-11-15T11:14:23;11.70;99.90
56162;DHT22;42045;52.986;6.014;2022-11-15T11:17:09;11.70;99.90
56162;DHT22;42045;52.986;6.014;2022-11-15T11:37:07;11.60;99.90
56162;DHT22;42045;52.986;6.014;2022-11-15T11:45:47;11.50;99.90
56162;DHT22;42045;52.986;6.014;2022-11-15T11:48:45;11.50;99.90
56162;DHT22;42045;52.986;6.014;2022-11-15T11:56:27;11.50;99.90
56162;DHT22;42045;52.986;6.014;2022-11-15T11:59:06;11.50;99.90
56162;DHT22;42045;52.986;6.014;2022-11-15T12:01:42;11.60;99.90
56162;DHT22;42045;52.986;6.014;2022-11-15T12:06:57;11.90;99.90
56162;DHT22;42045;52.986;6.014;2022-11-15T12:09:41;12.10;99.90
56162;DHT22;42045;52.986;6.014;2022-11-15T12:12:23;12.10;99.90
56162;DHT22;42045;52.986;6.014;2022-11-15T12:14:52;12.10;99.90
56162;DHT22;42045;52.986;6.014;2022-11-15T12:17:25;12.20;99.90
56162;DHT22;42045;52.986;6.014;2022-11-15T12:19:55;12.20;99.90
56162;DHT22;42045;52.986;6.014;2022-11-15T12:22:44;12.30;99.90
56162;DHT22;42045;52.986;6.014;2022-11-15T12:25:33;12.30;99.90
56162;DHT22;42045;52.986;6.014;2022-11-15T12:31:20;12.30;99.90
56162;DHT22;42045;52.986;6.014;2022-11-15T12:33:49;12.20;99.90
56162;DHT22;42045;52.986;6.014;2022-11-15T12:39:19;12.20;99.90
56162;DHT22;42045;52.986;6.014;2022-11-15T12:47:13;12.20;99.90
56162;DHT22;42045;52.986;6.014;2022-11-15T12:49:47;12.20;99.90
56162;DHT22;42045;52.986;6.014;2022-11-15T12:52:14;12.30;99.90
56162;DHT22;42045;52.986;6.014;2022-11-15T13:02:26;12.00;99.90
56162;DHT22;42045;52.986;6.014;2022-11-15T13:04:55;11.90;99.90
56162;DHT22;42045;52.986;6.014;2022-11-15T13:17:43;11.70;99.90
56162;DHT22;42045;52.986;6.014;2022-11-15T13:23:12;11.60;99.90
56162;DHT22;42045;52.986;6.014;2022-11-15T13:30:52;11.60;99.90
56162;DHT22;42045;52.986;6.014;2022-11-15T13:33:34;11.60;99.90
56162;DHT22;42045;52.986;6.014;2022-11-15T13:39:33;11.60;99.90
56162;DHT22;42045;52.986;6.014;2022-11-15T13:42:00;11.60;99.90
56162;DHT22;42045;52.986;6.014;2022-11-15T13:44:28;11.60;99.90
56162;DHT22;42045;52.986;6.014;2022-11-15T13:47:14;11.50;99.90
56162;DHT22;42045;52.986;6.014;2022-11-15T13:49:40;11.50;99.90
56162;DHT22;42045;52.986;6.014;2022-11-15T13:52:09;11.50;99.90
56162;DHT22;42045;52.986;6.014;2022-11-15T13:54:44;11.40;99.90
56162;DHT22;42045;52.986;6.014;2022-11-15T13:57:17;11.40;99.90
56162;DHT22;42045;52.986;6.014;2022-11-15T14:02:19;11.30;99.90
56162;DHT22;42045;52.986;6.014;2022-11-15T14:07:57;11.20;99.90
56162;DHT22;42045;52.986;6.014;2022-11-15T14:10:29;11.00;99.90
56162;DHT22;42045;52.986;6.014;2022-11-15T14:12:57;11.00;99.90
56162;DHT22;42045;52.986;6.014;2022-11-15T14:17:56;10.90;99.90
56162;DHT22;42045;52.986;6.014;2022-11-15T14:22:56;10.80;99.90
56162;DHT22;42045;52.986;6.014;2022-11-15T14:25:24;10.70;99.90
56162;DHT22;42045;52.986;6.014;2022-11-15T14:28:12;10.70;99.90
56162;DHT22;42045;52.986;6.014;2022-11-15T14:30:40;10.60;99.90
56162;DHT22;42045;52.986;6.014;2022-11-15T14:35:47;10.50;99.90
56162;DHT22;42045;52.986;6.014;2022-11-15T14:38:13;10.50;99.90
56162;DHT22;42045;52.986;6.014;2022-11-15T14:40:39;10.40;99.90
56162;DHT22;42045;52.986;6.014;2022-11-15T14:43:08;10.40;99.90
56162;DHT22;42045;52.986;6.014;2022-11-15T14:45:35;10.40;99.90
56162;DHT22;42045;52.986;6.014;2022-11-15T14:48:01;10.40;99.90
56162;DHT22;42045;52.986;6.014;2022-11-15T14:50:26;10.30;99.90
56162;DHT22;42045;52.986;6.014;2022-11-15T14:52:53;10.30;99.90
56162;DHT22;42045;52.986;6.014;2022-11-15T14:55:27;10.20;99.90
56162;DHT22;42045;52.986;6.014;2022-11-15T14:57:54;10.30;99.90
56162;DHT22;42045;52.986;6.014;2022-11-15T15:00:20;10.30;99.90
56162;DHT22;42045;52.986;6.014;2022-11-15T15:02:47;10.30;99.90
56162;DHT22;42045;52.986;6.014;2022-11-15T15:05:25;10.30;99.90
56162;DHT22;42045;52.986;6.014;2022-11-15T15:07:51;10.30;99.90
56162;DHT22;42045;52.986;6.014;2022-11-15T15:10:18;10.30;99.90
56162;DHT22;42045;52.986;6.014;2022-11-15T15:12:45;10.40;99.90
56162;DHT22;42045;52.986;6.014;2022-11-15T15:15:37;10.30;99.90
56162;DHT22;42045;52.986;6.014;2022-11-15T15:18:04;10.30;99.90
56162;DHT22;42045;52.986;6.014;2022-11-15T15:20:34;10.30;99.90
56162;DHT22;42045;52.986;6.014;2022-11-15T15:23:00;10.20;99.90
56162;DHT22;42045;52.986;6.014;2022-11-15T15:25:31;10.20;99.90
56162;DHT22;42045;52.986;6.014;2022-11-15T15:27:58;10.10;99.90
56162;DHT22;42045;52.986;6.014;2022-11-15T15:30:26;10.10;99.90
56162;DHT22;42045;52.986;6.014;2022-11-15T15:32:52;10.00;99.90
56162;DHT22;42045;52.986;6.014;2022-11-15T15:35:18;10.00;99.90
56162;DHT22;42045;52.986;6.014;2022-11-15T15:37:44;10.00;99.90
56162;DHT22;42045;52.986;6.014;2022-11-15T15:40:15;9.90;99.90
56162;DHT22;42045;52.986;6.014;2022-11-15T15:42:41;9.80;99.90
56162;DHT22;42045;52.986;6.014;2022-11-15T15:45:08;9.80;99.90
56162;DHT22;42045;52.986;6.014;2022-11-15T15:47:34;9.80;99.90
56162;DHT22;42045;52.986;6.014;2022-11-15T15:50:00;9.70;99.90
56162;DHT22;42045;52.986;6.014;2022-11-15T15:52:25;9.70;99.90
56162;DHT22;42045;52.986;6.014;2022-11-15T15:54:51;9.80;99.90
56162;DHT22;42045;52.986;6.014;2022-11-15T15:57:16;9.70;99.90
56162;DHT22;42045;52.986;6.014;2022-11-15T15:59:42;9.70;99.90
56162;DHT22;42045;52.986;6.014;2022-11-15T16:02:11;9.80;99.90
56162;DHT22;42045;52.986;6.014;2022-11-15T16:04:37;9.80;99.90
56162;DHT22;42045;52.986;6.014;2022-11-15T16:07:03;9.90;99.90
56162;DHT22;42045;52.986;6.014;2022-11-15T16:09:29;9.90;99.90
56162;DHT22;42045;52.986;6.014;2022-11-15T16:12:14;10.00;99.90
56162;DHT22;42045;52.986;6.014;2022-11-15T16:14:42;10.00;99.90
56162;DHT22;42045;52.986;6.014;2022-11-15T16:17:19;10.00;99.90
56162;DHT22;42045;52.986;6.014;2022-11-15T16:19:45;10.00;99.90
56162;DHT22;42045;52.986;6.014;2022-11-15T16:22:11;10.10;99.90
56162;DHT22;42045;52.986;6.014;2022-11-15T16:24:37;10.10;99.90
56162;DHT22;42045;52.986;6.014;2022-11-15T16:27:02;10.20;99.90
56162;DHT22;42045;52.986;6.014;2022-11-15T16:29:28;10.20;99.90
56162;DHT22;42045;52.986;6.014;2022-11-15T16:31:54;10.20;99.90
56162;DHT22;42045;52.986;6.014;2022-11-15T16:34:19;10.20;99.90
56162;DHT22;42045;52.986;6.014;2022-11-15T16:36:45;10.30;99.90
56162;DHT22;42045;52.986;6.014;2022-11-15T16:39:12;10.30;99.90
56162;DHT22;42045;52.986;6.014;2022-11-15T16:41:43;10.30;99.90
56162;DHT22;42045;52.986;6.014;2022-11-15T16:44:12;10.30;99.90
56162;DHT22;42045;52.986;6.014;2022-11-15T16:46:41;10.40;99.90
56162;DHT22;42045;52.986;6.014;2022-11-15T16:49:14;10.40;99.90
56162;DHT22;42045;52.986;6.014;2022-11-15T16:51:40;10.50;99.90
56162;DHT22;42045;52.986;6.014;2022-11-15T16:54:07;10.50;99.90
56162;DHT22;42045;52.986;6.014;2022-11-15T16:56:33;10.50;99.90
56162;DHT22;42045;52.986;6.014;2022-11-15T16:59:00;10.50;99.90
56162;DHT22;42045;52.986;6.014;2022-11-15T17:01:36;10.50;99.90
56162;DHT22;42045;52.986;6.014;2022-11-15T17:04:11;10.50;99.90
56162;DHT22;42045;52.986;6.014;2022-11-15T17:06:42;10.60;99.90
56162;DHT22;42045;52.986;6.014;2022-11-15T17:09:20;10.60;99.90
56162;DHT22;42045;52.986;6.014;2022-11-15T17:11:49;10.60;99.90
56162;DHT22;42045;52.986;6.014;2022-11-15T17:14:15;10.60;99.90
56162;DHT22;42045;52.986;6.014;2022-11-15T17:16:41;10.60;99.90
56162;DHT22;42045;52.986;6.014;2022-11-15T17:19:18;10.60;99.90
56162;DHT22;42045;52.986;6.014;2022-11-15T17:21:46;10.60;99.90
56162;DHT22;42045;52.986;6.014;2022-11-15T17:24:14;10.70;99.90
56162;DHT22;42045;52.986;6.014;2022-11-15T17:26:40;10.70;99.90
56162;DHT22;42045;52.986;6.014;2022-11-15T17:29:07;10.70;99.90
56162;DHT22;42045;52.986;6.014;2022-11-15T17:31:36;10.70;99.90
56162;DHT22;42045;52.986;6.014;2022-11-15T17:34:04;10.70;99.90
56162;DHT22;42045;52.986;6.014;2022-11-15T17:36:30;10.80;99.90
56162;DHT22;42045;52.986;6.014;2022-11-15T17:38:55;10.80;99.90
56162;DHT22;42045;52.986;6.014;2022-11-15T17:41:21;10.80;99.90
56162;DHT22;42045;52.986;6.014;2022-11-15T17:43:47;10.80;99.90
56162;DHT22;42045;52.986;6.014;2022-11-15T17:46:15;10.80;99.90
56162;DHT22;42045;52.986;6.014;2022-11-15T17:48:42;10.90;99.90
56162;DHT22;42045;52.986;6.014;2022-11-15T17:51:11;10.90;99.90
56162;DHT22;42045;52.986;6.014;2022-11-15T17:53:39;10.90;99.90
56162;DHT22;42045;52.986;6.014;2022-11-15T17:56:10;10.90;99.90
56162;DHT22;42045;52.986;6.014;2022-11-15T17:58:36;10.90;99.90
56162;DHT22;42045;52.986;6.014;2022-11-15T18:03:38;10.90;99.90
56162;DHT22;42045;52.986;6.014;2022-11-15T18:06:05;10.90;99.90